createdAt,value
2018-04-29T00:01:56.856Z,94029.70
2018-04-29T00:04:24.401Z,94025.34
2018-04-29T00:06:51.990Z,94031.70
2018-04-29T00:09:19.565Z,94030.98
2018-04-29T00:11:47.107Z,94027.81
2018-04-29T00:14:14.643Z,94025.37
2018-04-29T00:16:42.288Z,94022.75
2018-04-29T00:19:09.835Z,94023.00
2018-04-29T00:21:37.392Z,94021.52
2018-04-29T00:24:04.987Z,94022.55
2018-04-29T00:26:32.532Z,94033.63
2018-04-29T00:29:00.077Z,94030.08
2018-04-29T00:31:27.655Z,94033.63
2018-04-29T00:33:55.209Z,94032.11
2018-04-29T00:36:22.766Z,94028.84
2018-04-29T00:38:50.372Z,94021.34
2018-04-29T00:41:17.913Z,94030.49
2018-04-29T00:43:45.470Z,94033.22
2018-04-29T00:46:13.162Z,94032.70
2018-04-29T00:48:40.725Z,94031.45
2018-04-29T00:51:08.272Z,94028.08
2018-04-29T00:53:35.953Z,94024.02
2018-04-29T00:56:03.522Z,94025.99
2018-04-29T00:58:31.088Z,94021.95
2018-04-29T01:00:58.678Z,94020.11
2018-04-29T01:03:26.207Z,94020.16
2018-04-29T01:05:53.751Z,94016.20
2018-04-29T01:08:21.345Z,94013.95
2018-04-29T01:10:48.883Z,94014.50
2018-04-29T01:13:16.421Z,94014.69
2018-04-29T01:15:44.008Z,94020.33
2018-04-29T01:18:11.561Z,94019.55
2018-04-29T01:20:39.132Z,94015.49
2018-04-29T01:23:06.751Z,94011.21
2018-04-29T01:25:34.274Z,94016.50
2018-04-29T01:28:01.819Z,94014.69
2018-04-29T01:30:29.496Z,94019.74
2018-04-29T01:32:57.045Z,94013.76
2018-04-29T01:35:24.596Z,94013.76
2018-04-29T01:37:52.158Z,94008.33
2018-04-29T01:40:19.700Z,94009.39
2018-04-29T01:42:47.237Z,94007.72
2018-04-29T01:45:15.218Z,94008.91
2018-04-29T01:47:42.774Z,94005.74
2018-04-29T01:50:10.323Z,94006.64
2018-04-29T01:52:37.931Z,93998.04
2018-04-29T01:55:05.476Z,93994.17
2018-04-29T01:57:33.027Z,93987.00
2018-04-29T02:00:00.764Z,93988.88
2018-04-29T02:02:28.299Z,93985.48
2018-04-29T02:04:55.855Z,93991.38
2018-04-29T02:07:23.724Z,93988.67
2018-04-29T02:09:51.264Z,93980.11
2018-04-29T02:12:18.798Z,93977.48
2018-04-29T02:14:46.398Z,93974.00
2018-04-29T02:17:13.938Z,93975.83
2018-04-29T02:19:41.477Z,93968.36
2018-04-29T02:22:09.198Z,93967.82
2018-04-29T02:24:36.742Z,93966.81
2018-04-29T02:27:04.313Z,93966.97
2018-04-29T02:29:31.902Z,93961.02
2018-04-29T02:31:59.448Z,93966.13
2018-04-29T02:34:26.993Z,93961.10
2018-04-29T02:36:54.570Z,93955.28
2018-04-29T02:39:22.119Z,93955.80
2018-04-29T02:41:49.676Z,93961.83
2018-04-29T02:44:17.239Z,93956.45
2018-04-29T02:46:44.794Z,93957.73
2018-04-29T02:49:12.348Z,93958.00
2018-04-29T02:51:39.921Z,93953.95
2018-04-29T02:54:07.478Z,93957.09
2018-04-29T02:56:35.014Z,93956.92
2018-04-29T02:59:02.569Z,93958.00
2018-04-29T03:01:30.111Z,93954.39
2018-04-29T03:03:57.823Z,93954.06
2018-04-29T03:06:25.396Z,93952.48
2018-04-29T03:08:52.944Z,93949.68
2018-04-29T03:11:20.543Z,93945.46
2018-04-29T03:13:48.096Z,93949.34
2018-04-29T03:16:15.649Z,93949.09
2018-04-29T03:18:43.369Z,93943.98
2018-04-29T03:21:10.924Z,93948.19
2018-04-29T03:23:38.467Z,93947.13
2018-04-29T03:26:06.061Z,93950.14
2018-04-29T03:28:33.613Z,93946.95
2018-04-29T03:31:01.164Z,93950.91
2018-04-29T03:33:28.741Z,93948.58
2018-04-29T03:35:56.289Z,93948.45
2018-04-29T03:38:23.832Z,93954.31
2018-04-29T03:40:51.425Z,93956.56
2018-04-29T03:43:18.974Z,93957.97
2018-04-29T03:45:46.525Z,93956.69
2018-04-29T03:48:14.154Z,93958.63
2018-04-29T03:50:41.685Z,93953.95
2018-04-29T03:53:09.250Z,93956.78
2018-04-29T03:55:37.022Z,93957.95
2018-04-29T03:58:16.273Z,93957.14
2018-04-29T04:00:55.753Z,93949.55
2018-04-29T04:03:35.032Z,93941.39
2018-04-29T04:06:02.615Z,93936.98
2018-04-29T04:08:30.147Z,93943.09
2018-04-29T04:10:57.691Z,93941.48
2018-04-29T04:13:25.269Z,93931.61
2018-04-29T04:15:52.815Z,93935.78
2018-04-29T04:18:20.352Z,93938.89
2018-04-29T04:20:47.915Z,93935.13
2018-04-29T04:23:15.459Z,93941.77
2018-04-29T04:25:43.042Z,93933.86
2018-04-29T04:28:10.767Z,93936.45
2018-04-29T04:30:38.297Z,93935.09
2018-04-29T04:33:05.840Z,93940.64
2018-04-29T04:35:33.532Z,93929.91
2018-04-29T04:38:01.096Z,93942.72
2018-04-29T04:40:28.637Z,93940.70
2018-04-29T04:42:56.220Z,93936.44
2018-04-29T04:45:23.762Z,93929.36
2018-04-29T04:47:51.325Z,93937.58
2018-04-29T04:50:18.912Z,93937.50
2018-04-29T04:52:46.449Z,93933.98
2018-04-29T04:55:13.983Z,93931.58
2018-04-29T04:57:41.532Z,93931.77
2018-04-29T05:00:09.086Z,93933.30
2018-04-29T05:02:36.632Z,93928.73
2018-04-29T05:05:04.357Z,93930.83
2018-04-29T05:07:31.895Z,93937.06
2018-04-29T05:09:59.440Z,93928.09
2018-04-29T05:12:27.132Z,93932.70
2018-04-29T05:14:54.663Z,93928.08
2018-04-29T05:17:22.219Z,93930.78
2018-04-29T05:19:49.936Z,93931.59
2018-04-29T05:22:17.586Z,93933.34
2018-04-29T05:24:45.088Z,93926.95
2018-04-29T05:27:12.805Z,93928.61
2018-04-29T05:29:40.360Z,93926.16
2018-04-29T05:32:07.912Z,93929.41
2018-04-29T05:34:35.916Z,93931.13
2018-04-29T05:37:03.469Z,93932.08
2018-04-29T05:39:31.013Z,93942.37
2018-04-29T05:41:58.699Z,93929.38
2018-04-29T05:44:26.243Z,93935.61
2018-04-29T05:46:54.500Z,93934.02
2018-04-29T05:49:22.089Z,93934.63
2018-04-29T05:51:49.647Z,93935.02
2018-04-29T05:54:17.196Z,93928.81
2018-04-29T05:56:44.915Z,93938.44
2018-04-29T05:59:12.467Z,93950.73
2018-04-29T06:01:40.011Z,93948.18
2018-04-29T06:04:07.933Z,93949.98
2018-04-29T06:06:35.483Z,93942.89
2018-04-29T06:09:03.083Z,93942.52
2018-04-29T06:11:30.673Z,93943.17
2018-04-29T06:13:58.238Z,93949.92
2018-04-29T06:16:25.786Z,93948.41
2018-04-29T06:18:53.369Z,93951.59
2018-04-29T06:21:21.808Z,93947.30
2018-04-29T06:23:49.351Z,93953.63
2018-04-29T06:26:17.017Z,93952.05
2018-04-29T06:28:44.525Z,93948.19
2018-04-29T06:31:12.065Z,93952.80
2018-04-29T06:33:39.760Z,93954.10
2018-04-29T06:36:07.319Z,93956.96
2018-04-29T06:38:34.864Z,93956.16
2018-04-29T06:41:02.440Z,93955.39
2018-04-29T06:43:30.034Z,93961.85
2018-04-29T06:45:57.588Z,93961.42
2018-04-29T06:48:25.305Z,93958.33
2018-04-29T06:50:52.858Z,93958.69
2018-04-29T06:53:20.407Z,93967.45
2018-04-29T06:55:48.272Z,93962.13
2018-04-29T06:58:15.825Z,93961.69
2018-04-29T07:00:43.379Z,93967.58
2018-04-29T07:03:11.260Z,93964.39
2018-04-29T07:05:38.845Z,93966.84
2018-04-29T07:08:06.418Z,93968.53
2018-04-29T07:10:34.017Z,93964.33
2018-04-29T07:13:01.558Z,93964.85
2018-04-29T07:15:29.108Z,93970.03
2018-04-29T07:17:57.006Z,93968.50
2018-04-29T07:20:24.556Z,93966.94
2018-04-29T07:22:52.151Z,93967.80
2018-04-29T07:25:19.864Z,93965.83
2018-04-29T07:27:47.417Z,93970.98
2018-04-29T07:30:14.965Z,93963.10
2018-04-29T07:32:42.553Z,93954.69
2018-04-29T07:35:10.096Z,93956.42
2018-04-29T07:37:37.659Z,93959.42
2018-04-29T07:40:05.424Z,93956.20
2018-04-29T07:42:32.946Z,93959.97
2018-04-29T07:45:00.505Z,93966.41
2018-04-29T07:47:28.471Z,93957.22
2018-04-29T07:49:56.034Z,93960.62
2018-04-29T07:52:23.890Z,93960.88
2018-04-29T07:54:51.413Z,93957.60
2018-04-29T07:57:18.983Z,93953.16
2018-04-29T07:59:46.524Z,93958.99
2018-04-29T08:02:14.104Z,93954.38
2018-04-29T08:04:41.660Z,93968.28
2018-04-29T08:07:09.212Z,93950.53
2018-04-29T08:09:36.948Z,93956.95
2018-04-29T08:12:04.508Z,93948.77
2018-04-29T08:14:32.056Z,93943.86
2018-04-29T08:16:59.795Z,93945.50
2018-04-29T08:19:27.374Z,93944.81
2018-04-29T08:21:54.934Z,93938.51
2018-04-29T08:24:22.517Z,93934.98
2018-04-29T08:26:50.079Z,93941.45
2018-04-29T08:29:17.629Z,93941.46
2018-04-29T08:31:45.341Z,93931.80
2018-04-29T08:34:12.938Z,93935.09
2018-04-29T08:36:40.487Z,93934.41
2018-04-29T08:39:08.216Z,93932.66
2018-04-29T08:41:35.773Z,93926.58
2018-04-29T08:44:03.328Z,93933.72
2018-04-29T08:46:31.008Z,93925.41
2018-04-29T08:48:58.551Z,93924.41
2018-04-29T08:51:26.092Z,93922.03
2018-04-29T08:53:53.759Z,93912.79
2018-04-29T08:56:21.312Z,93916.26
2018-04-29T08:58:48.859Z,93916.19
2018-04-29T09:01:16.528Z,93914.31
2018-04-29T09:03:44.110Z,93917.36
2018-04-29T09:06:11.662Z,93912.63
2018-04-29T09:08:39.236Z,93910.50
2018-04-29T09:11:06.793Z,93908.81
2018-04-29T09:13:34.335Z,93915.42
2018-04-29T09:16:01.895Z,93915.66
2018-04-29T09:18:29.444Z,93913.53
2018-04-29T09:20:56.982Z,93900.17
2018-04-29T09:23:24.743Z,93902.13
2018-04-29T09:25:52.276Z,93901.41
2018-04-29T09:28:19.837Z,93900.83
2018-04-29T09:30:47.497Z,93909.02
2018-04-29T09:33:15.032Z,93897.47
2018-04-29T09:35:42.582Z,93904.03
2018-04-29T09:38:10.238Z,93881.04
2018-04-29T09:40:37.805Z,93886.63
2018-04-29T09:43:05.353Z,93894.51
2018-04-29T09:45:33.240Z,93892.55
2018-04-29T09:48:00.793Z,93892.53
2018-04-29T09:50:28.347Z,93884.37
2018-04-29T09:52:56.063Z,93875.16
2018-04-29T09:55:23.905Z,93883.91
2018-04-29T09:57:51.472Z,93879.30
2018-04-29T10:00:25.638Z,93875.16
2018-04-29T10:02:53.232Z,93865.95
2018-04-29T10:05:20.836Z,93860.60
2018-04-29T10:07:48.404Z,93870.56
2018-04-29T10:10:15.956Z,93862.62
2018-04-29T10:12:43.628Z,93863.55
2018-04-29T10:15:11.182Z,93858.05
2018-04-29T10:17:38.736Z,93866.59
2018-04-29T10:20:06.469Z,93858.69
2018-04-29T10:22:34.021Z,93877.11
2018-04-29T10:25:01.561Z,93867.14
2018-04-29T10:27:29.317Z,93865.24
2018-04-29T10:29:56.888Z,93862.29
2018-04-29T10:32:24.510Z,93853.30
2018-04-29T10:34:52.173Z,93854.48
2018-04-29T10:37:19.795Z,93863.59
2018-04-29T10:39:47.295Z,93852.02
2018-04-29T10:42:15.026Z,93853.53
2018-04-29T10:44:42.589Z,93857.48
2018-04-29T10:47:10.139Z,93849.84
2018-04-29T10:49:37.713Z,93848.83
2018-04-29T10:52:05.255Z,93850.77
2018-04-29T10:54:32.810Z,93857.14
2018-04-29T10:57:00.410Z,93849.84
2018-04-29T10:59:27.989Z,93844.52
2018-04-29T11:01:55.575Z,93848.21
2018-04-29T11:04:23.159Z,93848.41
2018-04-29T11:06:50.728Z,93841.66
2018-04-29T11:09:18.299Z,93845.02
2018-04-29T11:11:46.124Z,93834.94
2018-04-29T11:14:13.656Z,93840.09
2018-04-29T11:16:41.204Z,93840.15
2018-04-29T11:19:08.793Z,93835.36
2018-04-29T11:21:36.358Z,93837.78
2018-04-29T11:24:03.911Z,93833.79
2018-04-29T11:26:31.543Z,93835.65
2018-04-29T11:28:59.088Z,93827.08
2018-04-29T11:31:26.646Z,93830.69
2018-04-29T11:33:54.303Z,93829.77
2018-04-29T11:36:21.834Z,93838.89
2018-04-29T11:38:49.381Z,93824.90
2018-04-29T11:41:17.052Z,93826.25
2018-04-29T11:43:44.596Z,93819.95
2018-04-29T11:46:12.145Z,93809.50
2018-04-29T11:48:39.868Z,93811.13
2018-04-29T11:51:07.413Z,93808.61
2018-04-29T11:53:34.952Z,93812.34
2018-04-29T11:56:02.640Z,93811.23
2018-04-29T11:58:30.193Z,93802.77
2018-04-29T12:00:57.750Z,93789.90
2018-04-29T12:03:25.341Z,93793.31
2018-04-29T12:05:52.923Z,93791.70
2018-04-29T12:08:20.465Z,93799.19
2018-04-29T12:10:48.092Z,93785.05
2018-04-29T12:13:15.652Z,93788.50
2018-04-29T12:15:43.254Z,93791.99
2018-04-29T12:18:11.194Z,93791.63
2018-04-29T12:20:38.757Z,93785.78
2018-04-29T12:23:06.320Z,93776.87
2018-04-29T12:25:33.897Z,93775.38
2018-04-29T12:28:01.435Z,93771.86
2018-04-29T12:30:28.988Z,93770.66
2018-04-29T12:32:56.569Z,93773.02
2018-04-29T12:35:24.095Z,93762.94
2018-04-29T12:37:51.665Z,93769.89
2018-04-29T12:40:19.528Z,93761.92
2018-04-29T12:42:47.077Z,93754.53
2018-04-29T12:45:14.633Z,93749.59
2018-04-29T12:47:42.333Z,93754.30
2018-04-29T12:50:09.882Z,93746.83
2018-04-29T12:52:37.439Z,93751.83
2018-04-29T12:55:05.045Z,93746.83
2018-04-29T12:57:32.575Z,93736.44
2018-04-29T13:00:00.137Z,93733.67
2018-04-29T13:02:27.730Z,93735.07
2018-04-29T13:04:55.296Z,93737.71
2018-04-29T13:07:22.849Z,93735.02
2018-04-29T13:09:50.585Z,93730.63
2018-04-29T13:12:18.126Z,93723.56
2018-04-29T13:14:45.689Z,93721.27
2018-04-29T13:17:13.433Z,93721.67
2018-04-29T13:19:40.985Z,93724.98
2018-04-29T13:22:08.523Z,93729.61
2018-04-29T13:24:36.116Z,93724.74
2018-04-29T13:27:03.679Z,93724.41
2018-04-29T13:29:31.286Z,93725.67
2018-04-29T13:31:58.975Z,93720.72
2018-04-29T13:34:26.536Z,93722.88
2018-04-29T13:36:54.107Z,93717.38
2018-04-29T13:39:21.715Z,93716.69
2018-04-29T13:41:49.257Z,93712.77
2018-04-29T13:44:16.814Z,93703.75
2018-04-29T13:46:44.506Z,93708.72
2018-04-29T13:49:12.058Z,93713.67
2018-04-29T13:51:39.595Z,93709.83
2018-04-29T13:54:07.259Z,93710.63
2018-04-29T13:56:34.854Z,93710.97
2018-04-29T13:59:02.388Z,93720.16
2018-04-29T14:01:29.972Z,93712.30
2018-04-29T14:03:57.511Z,93708.45
2018-04-29T14:06:25.072Z,93701.61
2018-04-29T14:08:52.795Z,93700.06
2018-04-29T14:11:20.358Z,93698.34
2018-04-29T14:13:47.909Z,93703.89
2018-04-29T14:16:15.578Z,93708.80
2018-04-29T14:18:43.092Z,93703.22
2018-04-29T14:21:10.640Z,93704.92
2018-04-29T14:23:38.371Z,93703.02
2018-04-29T14:26:05.940Z,93703.66
2018-04-29T14:28:33.498Z,93698.72
2018-04-29T14:31:01.211Z,93700.98
2018-04-29T14:33:28.761Z,93692.16
2018-04-29T14:35:56.308Z,93693.41
2018-04-29T14:38:23.911Z,93688.84
2018-04-29T14:40:51.447Z,93691.57
2018-04-29T14:43:19.047Z,93688.51
2018-04-29T14:45:46.588Z,93683.22
2018-04-29T14:48:14.133Z,93684.00
2018-04-29T14:50:41.681Z,93674.30
2018-04-29T14:53:09.258Z,93677.14
2018-04-29T14:55:36.827Z,93675.13
2018-04-29T14:58:04.384Z,93672.08
2018-04-29T15:00:31.938Z,93669.17
2018-04-29T15:02:59.499Z,93668.38
2018-04-29T15:05:27.401Z,93667.41
2018-04-29T15:07:54.956Z,93669.52
2018-04-29T15:10:22.575Z,93661.77
2018-04-29T15:12:50.284Z,93669.11
2018-04-29T15:15:17.843Z,93674.85
2018-04-29T15:17:45.400Z,93667.05
2018-04-29T15:20:13.120Z,93669.18
2018-04-29T15:22:40.679Z,93663.30
2018-04-29T15:25:08.224Z,93659.75
2018-04-29T15:27:35.815Z,93659.70
2018-04-29T15:30:03.501Z,93657.23
2018-04-29T15:32:31.059Z,93657.42
2018-04-29T15:34:58.776Z,93653.41
2018-04-29T15:37:26.329Z,93649.29
2018-04-29T15:39:53.869Z,93654.50
2018-04-29T15:42:21.483Z,93647.89
2018-04-29T15:44:49.040Z,93655.38
2018-04-29T15:47:16.569Z,93653.83
2018-04-29T15:49:44.252Z,93649.76
2018-04-29T15:52:11.819Z,93643.75
2018-04-29T15:54:39.376Z,93638.19
2018-04-29T15:57:07.118Z,93642.10
2018-04-29T15:59:34.684Z,93640.88
2018-04-29T16:02:02.235Z,93659.52
2018-04-29T16:04:30.117Z,93645.42
2018-04-29T16:06:57.668Z,93653.67
2018-04-29T16:09:25.249Z,93647.66
2018-04-29T16:11:52.827Z,93652.22
2018-04-29T16:14:20.361Z,93644.74
2018-04-29T16:16:47.945Z,93649.63
2018-04-29T16:19:15.565Z,93647.17
2018-04-29T16:21:43.103Z,93641.73
2018-04-29T16:24:10.652Z,93647.59
2018-04-29T16:26:38.396Z,93652.95
2018-04-29T16:29:06.012Z,93656.26
2018-04-29T16:31:33.578Z,93652.69
2018-04-29T16:34:01.205Z,93655.81
2018-04-29T16:36:28.750Z,93653.34
2018-04-29T16:38:56.304Z,93648.55
2018-04-29T16:41:24.258Z,93645.30
2018-04-29T16:43:51.818Z,93660.08
2018-04-29T16:46:19.359Z,93653.42
2018-04-29T16:48:47.052Z,93648.41
2018-04-29T16:51:14.617Z,93659.65
2018-04-29T16:53:42.201Z,93657.32
2018-04-29T16:56:09.944Z,93665.75
2018-04-29T16:58:37.525Z,93662.61
2018-04-29T17:01:05.094Z,93660.71
2018-04-29T17:03:32.969Z,93658.70
2018-04-29T17:06:00.535Z,93665.32
2018-04-29T17:08:28.086Z,93675.09
2018-04-29T17:10:55.683Z,93668.08
2018-04-29T17:13:23.228Z,93672.34
2018-04-29T17:15:50.792Z,93667.17
2018-04-29T17:18:18.533Z,93668.61
2018-04-29T17:20:46.085Z,93682.56
2018-04-29T17:23:13.641Z,93675.34
2018-04-29T17:25:41.243Z,93686.59
2018-04-29T17:28:08.793Z,93684.38
2018-04-29T17:30:36.349Z,93700.59
2018-04-29T17:33:04.080Z,93692.59
2018-04-29T17:35:31.626Z,93700.31
2018-04-29T17:37:59.188Z,93708.77
2018-04-29T17:40:27.059Z,93705.36
2018-04-29T17:42:54.644Z,93703.14
2018-04-29T17:45:22.226Z,93697.52
2018-04-29T17:47:49.928Z,93701.62
2018-04-29T17:50:17.458Z,93704.05
2018-04-29T17:52:45.029Z,93711.56
2018-04-29T17:55:12.633Z,93704.63
2018-04-29T17:57:40.176Z,93712.37
2018-04-29T18:00:07.736Z,93713.58
2018-04-29T18:02:35.311Z,93714.31
2018-04-29T18:05:03.880Z,93709.62
2018-04-29T18:07:31.450Z,93711.47
2018-04-29T18:09:59.079Z,93713.75
2018-04-29T18:12:26.671Z,93726.47
2018-04-29T18:14:54.226Z,93726.56
2018-04-29T18:17:21.919Z,93725.95
2018-04-29T18:19:49.468Z,93731.04
2018-04-29T18:22:17.015Z,93735.25
2018-04-29T18:24:44.617Z,93735.31
2018-04-29T18:27:12.179Z,93734.97
2018-04-29T18:29:39.730Z,93733.81
2018-04-29T18:32:07.515Z,93742.35
2018-04-29T18:34:35.069Z,93740.08
2018-04-29T18:37:02.615Z,93736.56
2018-04-29T18:39:30.364Z,93736.98
2018-04-29T18:41:57.914Z,93737.08
2018-04-29T18:44:25.466Z,93737.61
2018-04-29T18:46:53.063Z,93734.95
2018-04-29T18:49:20.614Z,93739.30
2018-04-29T18:51:48.167Z,93733.71
2018-04-29T18:54:15.781Z,93738.00
2018-04-29T18:56:43.340Z,93737.41
2018-04-29T18:59:10.892Z,93741.02
2018-04-29T19:01:38.586Z,93741.98
2018-04-29T19:04:06.130Z,93739.60
2018-04-29T19:06:33.672Z,93742.69
2018-04-29T19:09:01.651Z,93741.77
2018-04-29T19:11:29.189Z,93742.99
2018-04-29T19:13:56.720Z,93746.39
2018-04-29T19:16:24.478Z,93743.30
2018-04-29T19:18:52.023Z,93748.27
2018-04-29T19:21:19.602Z,93748.05
2018-04-29T19:23:47.181Z,93745.59
2018-04-29T19:26:14.721Z,93743.31
2018-04-29T19:28:42.279Z,93749.55
2018-04-29T19:31:10.004Z,93746.67
2018-04-29T19:33:37.597Z,93749.59
2018-04-29T19:36:05.140Z,93745.92
2018-04-29T19:38:32.742Z,93748.28
2018-04-29T19:41:00.308Z,93752.61
2018-04-29T19:43:27.847Z,93745.10
2018-04-29T19:45:55.725Z,93749.17
2018-04-29T19:48:23.288Z,93751.04
2018-04-29T19:50:50.852Z,93754.95
2018-04-29T19:53:18.736Z,93749.98
2018-04-29T19:55:46.277Z,93757.53
2018-04-29T19:58:13.819Z,93755.73
2018-04-29T20:00:41.392Z,93754.83
2018-04-29T20:03:08.957Z,93756.13
2018-04-29T20:05:36.580Z,93767.41
2018-04-29T20:08:04.124Z,93760.16
2018-04-29T20:10:31.665Z,93767.28
2018-04-29T20:12:59.281Z,93765.80
2018-04-29T20:15:26.828Z,93772.48
2018-04-29T20:17:54.358Z,93772.79
2018-04-29T20:20:21.953Z,93772.38
2018-04-29T20:22:49.504Z,93769.77
2018-04-29T20:25:17.076Z,93780.99
2018-04-29T20:27:44.696Z,93779.45
2018-04-29T20:30:12.241Z,93786.66
2018-04-29T20:32:54.656Z,93783.14
2018-04-29T20:35:22.219Z,93788.68
2018-04-29T20:37:49.792Z,93786.36
2018-04-29T20:40:17.550Z,93788.08
2018-04-29T20:42:45.114Z,93792.05
2018-04-29T20:45:12.671Z,93786.73
2018-04-29T20:47:40.229Z,93787.84
2018-04-29T20:50:07.780Z,93796.67
2018-04-29T20:52:35.337Z,93792.84
2018-04-29T20:55:03.228Z,93799.34
2018-04-29T20:57:30.828Z,93796.67
2018-04-29T20:59:58.385Z,93801.46
2018-04-29T21:02:25.977Z,93798.66
2018-04-29T21:04:53.524Z,93801.83
2018-04-29T21:07:21.060Z,93801.54
2018-04-29T21:09:48.726Z,93806.11
2018-04-29T21:12:16.272Z,93805.63
2018-04-29T21:14:43.816Z,93802.09
2018-04-29T21:17:11.536Z,93801.09
2018-04-29T21:19:39.027Z,93808.48
2018-04-29T21:22:06.563Z,93814.63
2018-04-29T21:24:34.356Z,93814.56
2018-04-29T21:27:01.919Z,93809.69
2018-04-29T21:29:29.455Z,93820.48
2018-04-29T21:31:57.173Z,93816.85
2018-04-29T21:34:24.708Z,93814.89
2018-04-29T21:36:52.259Z,93823.09
2018-04-29T21:39:19.825Z,93825.05
2018-04-29T21:41:47.381Z,93823.76
2018-04-29T21:44:14.936Z,93823.34
2018-04-29T21:46:42.536Z,93826.67
2018-04-29T21:49:10.101Z,93834.58
2018-04-29T21:51:37.646Z,93831.22
2018-04-29T21:54:05.226Z,93828.69
2018-04-29T21:56:33.191Z,93834.34
2018-04-29T21:59:00.739Z,93827.80
2018-04-29T22:01:28.290Z,93829.57
2018-04-29T22:03:55.829Z,93829.51
2018-04-29T22:06:23.415Z,93825.52
2018-04-29T22:08:51.056Z,93822.80
2018-04-29T22:11:18.583Z,93821.24
2018-04-29T22:13:46.176Z,93826.37
2018-04-29T22:16:13.728Z,93824.41
2018-04-29T22:18:41.267Z,93819.91
2018-04-29T22:21:08.976Z,93820.56
2018-04-29T22:23:36.527Z,93825.49
2018-04-29T22:26:04.087Z,93824.34
2018-04-29T22:28:31.658Z,93824.38
2018-04-29T22:30:59.211Z,93820.39
2018-04-29T22:33:26.749Z,93821.36
2018-04-29T22:35:54.471Z,93815.16
2018-04-29T22:38:22.016Z,93819.73
2018-04-29T22:40:49.574Z,93811.44
2018-04-29T22:43:17.162Z,93807.86
2018-04-29T22:45:44.698Z,93804.28
2018-04-29T22:48:12.226Z,93803.98
2018-04-29T22:50:39.806Z,93802.88
2018-04-29T22:53:07.366Z,93800.44
2018-04-29T22:55:34.908Z,93803.47
2018-04-29T22:58:02.600Z,93805.77
2018-04-29T23:00:30.131Z,93806.30
2018-04-29T23:02:57.667Z,93804.36
2018-04-29T23:05:25.576Z,93805.33
2018-04-29T23:07:53.116Z,93802.07
2018-04-29T23:10:20.661Z,93800.95
2018-04-29T23:12:48.510Z,93805.78
2018-04-29T23:15:16.047Z,93797.17
2018-04-29T23:17:43.608Z,93802.90
2018-04-29T23:20:11.322Z,93797.99
2018-04-29T23:22:38.856Z,93796.49
2018-04-29T23:25:06.407Z,93790.06
2018-04-29T23:27:34.129Z,93790.17
2018-04-29T23:30:01.655Z,93786.21
2018-04-29T23:32:29.202Z,93782.89
2018-04-29T23:34:57.067Z,93785.94
2018-04-29T23:37:24.648Z,93773.91
2018-04-29T23:39:52.188Z,93772.78
2018-04-29T23:42:19.918Z,93776.77
2018-04-29T23:44:47.457Z,93775.36
2018-04-29T23:47:15.021Z,93774.80
2018-04-29T23:49:42.590Z,93773.64
2018-04-29T23:52:10.119Z,93769.89
2018-04-29T23:54:37.656Z,93773.98
2018-04-29T23:57:05.286Z,93774.36
2018-04-29T23:59:32.853Z,93772.94
